Time;durP1;ratioP1;P1;durP2;ratioP2;P2;SDS_P1;SDS_P2;PMS_P1;PMS_P2;Temp;Humidity;BMP_temperature;BMP_pressure;BME280_temperature;BME280_humidity;BME280_pressure;Samples;Min_cycle;Max_cycle;Signal;HPM_P1;HPM_P2
2022/03/02 00:01:40;;;;;;;18.90;11.05;;;5.00;99.90;;;;;;5018527;28;20045;-77
2022/03/02 00:04:06;;;;;;;17.73;10.65;;;5.00;99.90;;;;;;5035223;28;20037;-77
2022/03/02 00:06:32;;;;;;;17.83;10.38;;;4.90;99.90;;;;;;5011894;28;20041;-77
2022/03/02 00:08:57;;;;;;;17.67;10.35;;;4.90;99.90;;;;;;5002511;28;20044;-77
2022/03/02 00:11:24;;;;;;;15.95;10.02;;;4.90;99.90;;;;;;4997102;28;20465;-77
2022/03/02 00:13:49;;;;;;;14.50;8.98;;;4.90;99.90;;;;;;5013168;28;20454;-77
2022/03/02 00:16:16;;;;;;;16.13;9.98;;;5.00;99.90;;;;;;5002315;28;20131;-77
2022/03/02 00:18:43;;;;;;;15.02;9.50;;;5.00;99.90;;;;;;5034827;28;20034;-77
2022/03/02 00:21:09;;;;;;;14.38;9.43;;;5.00;99.90;;;;;;5018235;28;20113;-77
2022/03/02 00:23:34;;;;;;;13.48;8.50;;;5.00;99.90;;;;;;5012385;28;20116;-77
2022/03/02 00:26:00;;;;;;;17.48;9.85;;;5.00;99.90;;;;;;5013126;28;20034;-77
2022/03/02 00:28:25;;;;;;;14.52;8.88;;;5.00;99.90;;;;;;5034104;28;20381;-77
2022/03/02 00:30:51;;;;;;;16.52;9.20;;;5.00;99.90;;;;;;5009179;28;20091;-77
2022/03/02 00:33:17;;;;;;;15.02;9.00;;;5.00;99.90;;;;;;5023486;28;20039;-77
2022/03/02 00:35:43;;;;;;;16.30;8.60;;;4.90;99.90;;;;;;5001806;28;20039;-77
2022/03/02 00:38:10;;;;;;;14.75;9.43;;;4.90;99.90;;;;;;5024177;28;20023;-77
2022/03/02 00:40:38;;;;;;;15.55;9.80;;;4.80;99.90;;;;;;5019538;28;20457;-77
2022/03/02 00:43:04;;;;;;;15.65;9.18;;;4.80;99.90;;;;;;5011651;28;20197;-77
2022/03/02 00:45:31;;;;;;;15.48;9.98;;;4.80;99.90;;;;;;5019254;28;20573;-77
2022/03/02 00:47:58;;;;;;;15.70;9.50;;;4.80;99.90;;;;;;5001918;28;20033;-77
2022/03/02 00:50:24;;;;;;;15.55;9.10;;;4.80;99.90;;;;;;5033774;28;20134;-77
2022/03/02 00:52:50;;;;;;;14.93;8.93;;;4.80;99.90;;;;;;5017560;28;20061;-77
2022/03/02 00:55:16;;;;;;;12.90;7.88;;;4.80;99.90;;;;;;5017028;28;20045;-77
2022/03/02 00:57:42;;;;;;;15.80;9.93;;;4.70;99.90;;;;;;5034601;28;20477;-77
2022/03/02 01:00:08;;;;;;;15.77;8.88;;;4.70;99.90;;;;;;5001575;28;20029;-77
2022/03/02 01:02:34;;;;;;;16.55;10.88;;;4.70;99.90;;;;;;5011917;28;20128;-77
2022/03/02 01:04:59;;;;;;;14.63;9.88;;;4.60;99.90;;;;;;5023956;28;20031;-77
2022/03/02 01:07:25;;;;;;;16.08;9.88;;;4.60;99.90;;;;;;5023171;28;20269;-77
2022/03/02 01:09:50;;;;;;;16.17;10.45;;;4.60;99.90;;;;;;5018577;28;20753;-77
2022/03/02 01:12:16;;;;;;;17.20;10.90;;;4.60;99.90;;;;;;5001798;28;20045;-77
2022/03/02 01:14:42;;;;;;;19.33;10.10;;;4.60;99.90;;;;;;5012059;28;20037;-77
2022/03/02 01:17:07;;;;;;;15.27;10.13;;;4.50;99.90;;;;;;5023471;28;20970;-76
2022/03/02 01:19:33;;;;;;;16.63;9.65;;;4.60;99.90;;;;;;5018292;28;20025;-77
2022/03/02 01:21:59;;;;;;;16.90;9.95;;;4.60;99.90;;;;;;5010963;28;20040;-77
2022/03/02 01:24:24;;;;;;;15.02;9.57;;;4.60;99.90;;;;;;5017429;28;20017;-77
2022/03/02 01:26:50;;;;;;;16.50;9.65;;;4.60;99.90;;;;;;5001486;28;20478;-77
2022/03/02 01:29:16;;;;;;;13.30;8.02;;;4.60;99.90;;;;;;5023287;28;20175;-77
2022/03/02 01:31:41;;;;;;;11.75;8.23;;;4.60;99.90;;;;;;5016798;28;20046;-77
2022/03/02 01:34:07;;;;;;;14.55;8.23;;;4.60;99.90;;;;;;5016823;28;20045;-77
2022/03/02 01:36:33;;;;;;;14.00;8.27;;;4.60;99.90;;;;;;5010583;28;20032;-77
2022/03/02 01:38:58;;;;;;;14.52;9.38;;;4.50;99.90;;;;;;5017940;28;20128;-77
2022/03/02 01:41:26;;;;;;;16.88;9.85;;;4.50;99.90;;;;;;5016223;28;20041;-77
2022/03/02 01:43:53;;;;;;;15.52;9.70;;;4.40;99.90;;;;;;5017966;28;20064;-77
2022/03/02 01:46:20;;;;;;;15.07;10.05;;;4.40;99.90;;;;;;5018080;28;20508;-77
2022/03/02 01:48:47;;;;;;;16.80;8.82;;;4.40;99.90;;;;;;5017224;28;20069;-77
2022/03/02 01:51:13;;;;;;;13.73;9.10;;;4.50;99.90;;;;;;4993637;28;20084;-76
2022/03/02 01:53:40;;;;;;;14.45;8.88;;;4.40;99.90;;;;;;5015729;28;20039;-77
2022/03/02 01:56:06;;;;;;;14.65;9.02;;;4.40;99.90;;;;;;5010255;28;20048;-77
2022/03/02 01:58:32;;;;;;;14.50;9.10;;;4.40;99.90;;;;;;5005673;28;20658;-77
2022/03/02 02:00:59;;;;;;;13.52;8.55;;;4.40;99.90;;;;;;5033919;28;20067;-77
2022/03/02 02:03:25;;;;;;;15.60;9.27;;;4.50;99.90;;;;;;5017169;28;20054;-77
2022/03/02 02:05:51;;;;;;;14.52;8.82;;;4.40;99.90;;;;;;5032932;28;20056;-77
2022/03/02 02:08:17;;;;;;;14.98;8.82;;;4.40;99.90;;;;;;5017357;28;20029;-77
2022/03/02 02:10:43;;;;;;;12.60;8.63;;;4.50;99.90;;;;;;5022301;28;20021;-78
2022/03/02 02:13:09;;;;;;;16.10;9.43;;;4.50;99.90;;;;;;5033549;28;20026;-77
2022/03/02 02:15:35;;;;;;;15.23;8.80;;;4.40;99.90;;;;;;5016918;28;20030;-77
2022/03/02 02:18:00;;;;;;;16.42;9.13;;;4.40;99.90;;;;;;5001310;28;20496;-77
2022/03/02 02:20:26;;;;;;;12.52;7.70;;;4.40;99.90;;;;;;5016178;28;20051;-77
2022/03/02 02:22:53;;;;;;;13.93;9.00;;;4.40;99.90;;;;;;5016731;28;20049;-77
2022/03/02 02:25:19;;;;;;;15.48;8.98;;;4.40;99.90;;;;;;5011156;28;20736;-77
2022/03/02 02:27:47;;;;;;;12.68;8.05;;;4.30;99.90;;;;;;5016651;28;20048;-77
2022/03/02 02:30:13;;;;;;;14.55;8.30;;;4.40;99.90;;;;;;4999029;28;20025;-77
2022/03/02 02:32:40;;;;;;;13.10;8.50;;;4.40;99.90;;;;;;5018107;28;20061;-78
2022/03/02 02:35:08;;;;;;;15.45;8.77;;;4.30;99.90;;;;;;5016594;28;20072;-77
2022/03/02 02:37:35;;;;;;;13.88;8.70;;;4.30;99.90;;;;;;5016838;28;20117;-77
2022/03/02 02:40:09;;;;;;;13.20;8.93;;;4.30;99.90;;;;;;4999530;28;20406;-77
2022/03/02 02:42:35;;;;;;;14.70;9.02;;;4.30;99.90;;;;;;5011173;28;20107;-77
2022/03/02 02:45:02;;;;;;;17.38;9.88;;;4.30;99.90;;;;;;5010126;28;20045;-77
2022/03/02 02:47:27;;;;;;;15.10;9.45;;;4.30;99.90;;;;;;5032123;28;20049;-77
2022/03/02 02:49:53;;;;;;;13.15;8.60;;;4.40;99.90;;;;;;5017309;28;20029;-76
2022/03/02 02:52:18;;;;;;;14.05;8.85;;;4.30;99.90;;;;;;4999701;28;20029;-77
2022/03/02 02:54:44;;;;;;;14.07;8.68;;;4.30;99.90;;;;;;5016694;28;20037;-77
2022/03/02 02:57:10;;;;;;;14.35;8.85;;;4.30;99.90;;;;;;5014735;28;20033;-77
2022/03/02 02:59:36;;;;;;;13.70;9.10;;;4.30;99.90;;;;;;5013914;28;20029;-77
2022/03/02 03:02:02;;;;;;;14.98;8.77;;;4.30;99.90;;;;;;5019893;28;21976;-77
2022/03/02 03:04:28;;;;;;;18.25;9.68;;;4.30;99.90;;;;;;5020656;28;20033;-77
2022/03/02 03:06:53;;;;;;;12.30;8.18;;;4.30;99.90;;;;;;5004055;28;20083;-77
2022/03/02 03:09:19;;;;;;;15.43;8.95;;;4.30;99.90;;;;;;5013230;28;20037;-77
2022/03/02 03:11:45;;;;;;;13.75;8.88;;;4.30;99.90;;;;;;5021619;28;20330;-77
2022/03/02 03:14:12;;;;;;;15.30;8.68;;;4.30;99.90;;;;;;5004718;28;20026;-77
2022/03/02 03:16:39;;;;;;;15.10;9.68;;;4.40;99.90;;;;;;5035180;28;21869;-77
2022/03/02 03:19:05;;;;;;;13.07;9.05;;;4.40;99.90;;;;;;5021460;28;20040;-77
2022/03/02 03:21:30;;;;;;;14.52;9.00;;;4.40;99.90;;;;;;5018452;28;20037;-77
2022/03/02 03:23:56;;;;;;;13.68;8.75;;;4.40;99.90;;;;;;5020241;28;20457;-78
2022/03/02 03:26:22;;;;;;;14.88;8.75;;;4.50;99.90;;;;;;5004119;28;20496;-77
2022/03/02 03:28:48;;;;;;;13.52;9.02;;;4.40;99.90;;;;;;5003930;28;20033;-78
2022/03/02 03:31:13;;;;;;;15.43;9.32;;;4.40;99.90;;;;;;5036082;28;20030;-77
2022/03/02 03:33:39;;;;;;;14.27;8.95;;;4.40;99.90;;;;;;5025222;28;20033;-77
2022/03/02 03:36:05;;;;;;;12.95;8.05;;;4.40;99.90;;;;;;5002963;28;20037;-77
2022/03/02 03:38:30;;;;;;;13.50;8.15;;;4.40;99.90;;;;;;5019904;28;20033;-77
2022/03/02 03:40:56;;;;;;;15.15;8.40;;;4.40;99.90;;;;;;4991968;28;20095;-77
2022/03/02 03:43:22;;;;;;;13.32;7.95;;;4.40;99.90;;;;;;5026425;28;20037;-77
2022/03/02 03:45:49;;;;;;;11.80;7.55;;;4.40;99.90;;;;;;5018535;28;20128;-77
2022/03/02 03:48:15;;;;;;;14.00;7.65;;;4.30;99.90;;;;;;5018450;28;20064;-77
2022/03/02 03:50:41;;;;;;;12.85;7.55;;;4.30;99.90;;;;;;5012493;28;20041;-77
2022/03/02 03:53:08;;;;;;;12.85;7.47;;;4.30;99.90;;;;;;5001920;28;20728;-77
2022/03/02 03:55:34;;;;;;;13.75;8.10;;;4.30;99.90;;;;;;5017614;28;20033;-77
2022/03/02 03:58:00;;;;;;;12.05;7.63;;;4.10;99.90;;;;;;5020343;28;20021;-76
2022/03/02 04:00:26;;;;;;;15.15;8.52;;;4.10;99.90;;;;;;5034041;28;20478;-77
2022/03/02 04:02:51;;;;;;;11.82;7.32;;;4.10;99.90;;;;;;5035206;28;20033;-76
2022/03/02 04:05:17;;;;;;;11.85;7.32;;;4.00;99.90;;;;;;5024587;28;20021;-77
2022/03/02 04:07:44;;;;;;;14.05;8.20;;;4.00;99.90;;;;;;5017948;28;20037;-76
2022/03/02 04:10:10;;;;;;;12.15;7.53;;;3.90;99.90;;;;;;5012928;28;20111;-77
2022/03/02 04:12:36;;;;;;;13.57;8.23;;;3.90;99.90;;;;;;5019125;28;20033;-76
2022/03/02 04:15:03;;;;;;;13.27;7.13;;;3.90;99.90;;;;;;5019543;28;20021;-76
2022/03/02 04:17:29;;;;;;;13.95;7.68;;;3.80;99.90;;;;;;5012231;28;20701;-76
2022/03/02 04:19:54;;;;;;;13.50;8.43;;;3.70;99.90;;;;;;4995821;28;20038;-77
2022/03/02 04:22:20;;;;;;;12.90;8.00;;;3.60;99.90;;;;;;5011724;28;20041;-76
2022/03/02 04:24:46;;;;;;;13.63;8.13;;;3.60;99.90;;;;;;5018049;28;20526;-76
2022/03/02 04:27:12;;;;;;;12.13;7.93;;;3.50;99.90;;;;;;5019155;28;20037;-76
2022/03/02 04:29:38;;;;;;;14.02;8.75;;;3.40;99.90;;;;;;5013791;28;20022;-77
2022/03/02 04:32:04;;;;;;;13.00;8.63;;;3.40;99.90;;;;;;5011585;28;20033;-76
2022/03/02 04:34:29;;;;;;;11.93;7.90;;;3.30;99.90;;;;;;5018997;28;20025;-76
2022/03/02 04:36:55;;;;;;;12.15;6.85;;;3.30;99.90;;;;;;5018243;28;20045;-77
2022/03/02 04:39:21;;;;;;;13.23;7.53;;;3.30;99.90;;;;;;5004071;28;20037;-76
2022/03/02 04:41:46;;;;;;;10.35;6.65;;;3.40;99.90;;;;;;5018314;28;20111;-76
2022/03/02 04:44:12;;;;;;;12.43;7.50;;;3.40;99.90;;;;;;5017963;28;20033;-76
2022/03/02 04:46:38;;;;;;;13.23;7.30;;;3.40;99.90;;;;;;5019441;28;20049;-77
2022/03/02 04:49:10;;;;;;;13.80;7.72;;;3.40;99.90;;;;;;5016918;28;21045;-77
2022/03/02 04:51:38;;;;;;;13.40;7.22;;;3.40;99.90;;;;;;5020112;28;20039;-76
2022/03/02 04:54:04;;;;;;;12.52;6.70;;;3.40;99.90;;;;;;4994942;28;20045;-77
2022/03/02 04:56:29;;;;;;;13.10;7.35;;;3.50;99.90;;;;;;5033834;28;20057;-77
2022/03/02 04:58:55;;;;;;;11.80;6.45;;;3.50;99.90;;;;;;5024261;28;20064;-77
2022/03/02 05:01:21;;;;;;;12.88;6.72;;;3.50;99.90;;;;;;5018189;28;20040;-76
2022/03/02 05:03:46;;;;;;;12.00;6.32;;;3.50;99.90;;;;;;5016808;28;20029;-76
2022/03/02 05:06:12;;;;;;;12.25;7.05;;;3.50;99.90;;;;;;5012794;28;20128;-77
2022/03/02 05:08:37;;;;;;;9.98;6.47;;;3.50;99.90;;;;;;5024683;28;20043;-77
2022/03/02 05:11:03;;;;;;;12.63;6.90;;;3.50;99.90;;;;;;4985620;28;20041;-76
2022/03/02 05:13:29;;;;;;;11.25;6.57;;;3.50;99.90;;;;;;5020111;28;20041;-76
2022/03/02 05:15:55;;;;;;;12.13;6.82;;;3.40;99.90;;;;;;5018858;28;20052;-76
2022/03/02 05:18:21;;;;;;;12.23;6.63;;;3.40;99.90;;;;;;5023533;28;20037;-76
2022/03/02 05:20:46;;;;;;;13.25;7.72;;;3.30;99.90;;;;;;5000626;28;20040;-76
2022/03/02 05:23:12;;;;;;;9.82;6.47;;;3.30;99.90;;;;;;5001744;28;20044;-77
2022/03/02 05:25:38;;;;;;;15.70;7.57;;;3.20;99.90;;;;;;5002406;28;20083;-77
2022/03/02 05:28:04;;;;;;;11.40;7.10;;;3.20;99.90;;;;;;5018304;28;20033;-76
2022/03/02 05:30:29;;;;;;;13.75;7.88;;;3.10;99.90;;;;;;5010478;28;20481;-76
2022/03/02 05:32:55;;;;;;;12.90;7.75;;;3.10;99.90;;;;;;5023204;28;20396;-76
2022/03/02 05:35:21;;;;;;;12.98;7.10;;;3.10;99.90;;;;;;4994515;28;20131;-76
2022/03/02 05:37:46;;;;;;;11.57;6.72;;;3.00;99.90;;;;;;5017251;28;20028;-76
2022/03/02 05:40:15;;;;;;;12.40;6.57;;;3.00;99.90;;;;;;5010779;28;20034;-77
2022/03/02 05:42:42;;;;;;;12.48;7.45;;;2.90;99.90;;;;;;4997830;28;20257;-77
2022/03/02 05:45:09;;;;;;;12.77;7.22;;;2.90;99.90;;;;;;4994076;28;20123;-76
2022/03/02 05:47:36;;;;;;;13.35;7.57;;;2.90;99.90;;;;;;4994384;28;20053;-76
2022/03/02 05:50:03;;;;;;;10.98;5.85;;;2.90;99.90;;;;;;5011195;28;20047;-77
2022/03/02 05:52:28;;;;;;;11.82;5.85;;;2.80;99.90;;;;;;4994438;28;20121;-76
2022/03/02 05:54:54;;;;;;;11.40;6.50;;;2.80;99.90;;;;;;5033558;28;20037;-76
2022/03/02 05:57:19;;;;;;;12.25;6.40;;;2.70;99.90;;;;;;5018670;28;20032;-76
2022/03/02 05:59:45;;;;;;;9.65;5.80;;;2.70;99.90;;;;;;5017115;28;20030;-76
2022/03/02 06:02:10;;;;;;;10.38;5.90;;;2.70;99.90;;;;;;5033234;28;20046;-77
2022/03/02 06:04:36;;;;;;;11.23;6.35;;;2.70;99.90;;;;;;5024343;28;20022;-77
2022/03/02 06:07:02;;;;;;;10.80;5.95;;;2.70;99.90;;;;;;5014359;28;20034;-76
2022/03/02 06:09:28;;;;;;;12.32;6.57;;;2.70;99.90;;;;;;5010220;28;20482;-77
2022/03/02 06:11:54;;;;;;;9.45;5.32;;;2.70;99.90;;;;;;4998849;28;20101;-76
2022/03/02 06:14:19;;;;;;;10.38;5.18;;;2.60;99.90;;;;;;5033376;28;20041;-77
2022/03/02 06:16:45;;;;;;;11.48;5.97;;;2.60;99.90;;;;;;5017079;28;20554;-77
2022/03/02 06:19:13;;;;;;;11.07;6.10;;;2.60;99.90;;;;;;5009848;28;20041;-76
2022/03/02 06:21:43;;;;;;;9.27;4.78;;;2.50;99.90;;;;;;5022684;28;20109;-77
2022/03/02 06:24:09;;;;;;;9.43;5.47;;;2.50;99.90;;;;;;5010087;28;20029;-77
2022/03/02 06:26:35;;;;;;;11.23;5.57;;;2.50;99.90;;;;;;5011588;28;20045;-76
2022/03/02 06:29:01;;;;;;;9.20;5.45;;;2.40;99.90;;;;;;5017034;28;20040;-76
2022/03/02 06:31:27;;;;;;;10.60;5.63;;;2.40;99.90;;;;;;5012913;28;20033;-76
2022/03/02 06:33:53;;;;;;;8.70;4.95;;;2.40;99.90;;;;;;5020961;28;20036;-77
2022/03/02 06:36:20;;;;;;;10.07;5.18;;;2.40;99.90;;;;;;5027156;28;20033;-77
2022/03/02 06:38:45;;;;;;;10.98;6.32;;;2.30;99.90;;;;;;5019884;28;20044;-76
2022/03/02 06:41:28;;;;;;;11.43;6.13;;;2.30;99.90;;;;;;5022285;28;20037;-77
2022/03/02 06:44:04;;;;;;;13.38;5.90;;;2.30;99.90;;;;;;5017526;28;20052;-78
2022/03/02 06:47:05;;;;;;;10.27;5.82;;;2.30;99.90;;;;;;5012701;28;20048;-77
2022/03/02 06:49:50;;;;;;;10.38;5.75;;;2.30;99.90;;;;;;5035005;28;20033;-77
2022/03/02 06:52:18;;;;;;;11.98;5.28;;;2.30;99.90;;;;;;4996637;28;20126;-76
2022/03/02 06:54:47;;;;;;;9.98;4.97;;;2.30;99.90;;;;;;5021667;28;20048;-76
2022/03/02 06:57:19;;;;;;;11.52;6.20;;;2.40;99.90;;;;;;5019997;28;20085;-77
2022/03/02 06:59:51;;;;;;;8.60;4.95;;;2.40;99.90;;;;;;4998077;28;20106;-78
2022/03/02 07:02:26;;;;;;;10.15;5.93;;;2.30;99.90;;;;;;5018469;28;20073;-77
2022/03/02 07:04:53;;;;;;;10.95;5.55;;;2.40;99.90;;;;;;5021610;28;20025;-77
2022/03/02 07:07:19;;;;;;;10.07;5.78;;;2.30;99.90;;;;;;5020617;28;20310;-77
2022/03/02 07:09:46;;;;;;;9.38;5.25;;;2.30;99.90;;;;;;5002131;28;20045;-77
2022/03/02 07:12:11;;;;;;;10.43;5.78;;;2.30;99.90;;;;;;5034131;28;20429;-77
2022/03/02 07:14:37;;;;;;;11.75;5.60;;;2.40;99.90;;;;;;5018178;28;20124;-77
2022/03/02 07:17:04;;;;;;;10.60;5.85;;;2.40;99.90;;;;;;5032996;28;20533;-77
2022/03/02 07:19:30;;;;;;;9.27;5.60;;;2.50;99.90;;;;;;5017513;28;21016;-77
2022/03/02 07:21:56;;;;;;;9.35;5.60;;;2.50;99.90;;;;;;5017302;28;20091;-77
2022/03/02 07:24:23;;;;;;;12.85;6.93;;;2.50;99.90;;;;;;5019421;28;20025;-77
2022/03/02 07:26:54;;;;;;;9.65;5.15;;;2.50;99.90;;;;;;5018164;28;20038;-77
2022/03/02 07:29:21;;;;;;;9.73;6.07;;;2.70;99.90;;;;;;4997744;28;20086;-77
2022/03/02 07:31:48;;;;;;;10.80;5.43;;;2.70;99.90;;;;;;5035802;28;20029;-76
2022/03/02 07:34:15;;;;;;;10.52;5.75;;;2.70;99.90;;;;;;5019340;28;20029;-77
2022/03/02 07:36:42;;;;;;;10.10;5.10;;;2.70;99.90;;;;;;5010845;28;20438;-76
2022/03/02 07:39:09;;;;;;;8.35;4.82;;;2.80;99.90;;;;;;5012864;28;20079;-76
2022/03/02 07:41:35;;;;;;;9.25;5.15;;;2.90;99.90;;;;;;4998093;28;20045;-77
2022/03/02 07:44:01;;;;;;;9.40;5.65;;;2.90;99.90;;;;;;5010944;28;20025;-76
2022/03/02 07:46:29;;;;;;;8.82;4.60;;;3.00;99.90;;;;;;5017160;28;20489;-77
2022/03/02 07:48:58;;;;;;;10.52;6.28;;;3.00;99.90;;;;;;5016367;28;20036;-76
2022/03/02 07:51:24;;;;;;;11.85;6.25;;;3.10;99.90;;;;;;4992686;28;20132;-77
2022/03/02 07:53:53;;;;;;;11.63;6.60;;;3.10;99.90;;;;;;5032744;28;20037;-77
2022/03/02 07:56:20;;;;;;;11.05;6.22;;;3.10;99.90;;;;;;5032975;28;20037;-77
2022/03/02 07:58:46;;;;;;;10.50;6.03;;;3.20;99.90;;;;;;5018208;28;20484;-76
2022/03/02 08:01:18;;;;;;;10.52;6.03;;;3.30;99.90;;;;;;5032521;28;20433;-77
2022/03/02 08:03:45;;;;;;;10.48;6.03;;;3.40;99.90;;;;;;5032276;28;20030;-77
2022/03/02 08:06:11;;;;;;;10.25;5.65;;;3.40;99.90;;;;;;4999302;28;20470;-76
2022/03/02 08:08:37;;;;;;;9.13;5.18;;;3.50;99.90;;;;;;4984509;28;20052;-77
2022/03/02 08:11:04;;;;;;;9.90;5.93;;;3.70;99.90;;;;;;5016702;28;20045;-76
2022/03/02 08:13:31;;;;;;;10.05;5.82;;;3.70;99.90;;;;;;5017274;28;20041;-77
2022/03/02 08:15:57;;;;;;;10.20;5.82;;;3.90;99.90;;;;;;5016909;28;20080;-77
2022/03/02 08:18:23;;;;;;;10.30;5.55;;;4.00;99.90;;;;;;5015942;28;20048;-77
2022/03/02 08:20:51;;;;;;;10.05;5.53;;;4.10;99.90;;;;;;4992989;28;20029;-77
2022/03/02 08:23:23;;;;;;;10.38;6.38;;;4.30;99.90;;;;;;5011335;28;20048;-77
2022/03/02 08:25:52;;;;;;;11.98;6.20;;;4.40;99.90;;;;;;4999657;28;20033;-77
2022/03/02 08:28:19;;;;;;;10.38;4.80;;;4.60;99.90;;;;;;5016731;28;20021;-77
2022/03/02 08:30:48;;;;;;;10.68;6.55;;;4.70;99.90;;;;;;5001585;28;20040;-77
2022/03/02 08:33:19;;;;;;;11.70;7.07;;;4.90;99.90;;;;;;5010493;28;20033;-77
2022/03/02 08:35:46;;;;;;;10.85;6.35;;;5.10;99.90;;;;;;5032763;28;20025;-77
2022/03/02 08:38:12;;;;;;;9.93;4.93;;;5.20;99.90;;;;;;5012498;28;20070;-77
2022/03/02 08:40:38;;;;;;;11.13;6.78;;;5.30;99.90;;;;;;5032220;28;20044;-77
2022/03/02 08:43:06;;;;;;;13.38;7.57;;;5.40;99.90;;;;;;5017544;28;20025;-77
2022/03/02 08:45:32;;;;;;;11.60;7.47;;;5.50;99.90;;;;;;5018731;28;20041;-77
2022/03/02 08:48:03;;;;;;;13.90;8.07;;;5.60;99.90;;;;;;5018093;28;20120;-76
2022/03/02 08:50:29;;;;;;;11.57;6.80;;;5.80;99.90;;;;;;5018293;28;20108;-77
2022/03/02 08:52:56;;;;;;;10.10;6.30;;;5.80;99.90;;;;;;5018198;28;20040;-77
2022/03/02 08:55:27;;;;;;;13.27;7.18;;;6.00;99.90;;;;;;4994200;28;22577;-77
2022/03/02 08:57:54;;;;;;;10.23;6.28;;;6.00;99.90;;;;;;4994347;28;20034;-77
2022/03/02 09:00:20;;;;;;;11.23;6.03;;;6.10;99.90;;;;;;5014796;28;20029;-77
2022/03/02 09:02:47;;;;;;;10.20;5.95;;;6.30;99.90;;;;;;5016555;28;20040;-77
2022/03/02 09:05:13;;;;;;;9.38;5.43;;;6.30;99.90;;;;;;5010648;28;20033;-77
2022/03/02 09:07:39;;;;;;;9.05;4.75;;;6.50;99.90;;;;;;5022057;28;21970;-77
2022/03/02 09:10:05;;;;;;;8.32;4.43;;;6.70;99.90;;;;;;5017344;28;20144;-77
2022/03/02 09:12:31;;;;;;;7.63;4.28;;;6.80;99.90;;;;;;5007864;28;20354;-77
2022/03/02 09:14:58;;;;;;;7.47;4.47;;;6.80;99.90;;;;;;5021311;28;20458;-77
2022/03/02 09:17:25;;;;;;;7.93;4.82;;;6.90;99.90;;;;;;5030880;28;20037;-77
2022/03/02 09:20:00;;;;;;;9.80;5.68;;;7.00;99.90;;;;;;5015003;28;20068;-77
2022/03/02 09:22:27;;;;;;;9.98;5.53;;;7.00;99.90;;;;;;5015121;28;20087;-77
2022/03/02 09:24:54;;;;;;;9.25;5.38;;;7.20;99.90;;;;;;5014874;28;20108;-77
2022/03/02 09:27:20;;;;;;;9.77;5.70;;;7.30;99.90;;;;;;5010724;28;20152;-77
2022/03/02 09:29:48;;;;;;;9.85;5.45;;;7.30;99.90;;;;;;5030841;28;20037;-77
2022/03/02 09:32:15;;;;;;;9.27;4.57;;;7.30;99.90;;;;;;5000242;28;20029;-77
2022/03/02 09:34:45;;;;;;;7.70;4.60;;;7.30;99.90;;;;;;5009417;28;20034;-77
2022/03/02 09:37:14;;;;;;;7.72;4.20;;;7.40;99.90;;;;;;5014528;28;20180;-77
2022/03/02 09:39:42;;;;;;;9.60;4.80;;;7.50;99.90;;;;;;5015845;28;20029;-77
2022/03/02 09:42:14;;;;;;;8.70;5.13;;;7.50;99.90;;;;;;5007952;28;20666;-78
2022/03/02 09:44:51;;;;;;;7.75;4.38;;;7.70;99.90;;;;;;5015558;28;20021;-77
2022/03/02 09:47:21;;;;;;;7.82;4.22;;;7.80;99.90;;;;;;5014943;28;20057;-77
2022/03/02 09:49:57;;;;;;;8.55;5.07;;;7.80;99.90;;;;;;5016027;28;20036;-77
2022/03/02 09:52:23;;;;;;;7.65;5.07;;;7.90;99.90;;;;;;5015433;28;20033;-77
2022/03/02 09:54:57;;;;;;;9.15;5.15;;;8.00;99.90;;;;;;5008159;28;20037;-77
2022/03/02 09:57:23;;;;;;;6.60;3.47;;;8.10;99.90;;;;;;5014646;28;20034;-77
2022/03/02 09:59:56;;;;;;;6.63;4.30;;;8.20;99.90;;;;;;5014544;28;20579;-77
2022/03/02 10:02:34;;;;;;;9.15;5.35;;;8.20;99.90;;;;;;5014863;28;20036;-77
2022/03/02 10:05:04;;;;;;;9.07;5.55;;;8.40;99.90;;;;;;5015897;28;20047;-78
2022/03/02 10:07:33;;;;;;;9.38;6.28;;;8.50;99.90;;;;;;5008811;28;20037;-77
2022/03/02 10:10:15;;;;;;;11.27;6.70;;;8.60;99.90;;;;;;4976677;28;20037;-77
2022/03/02 10:12:41;;;;;;;7.75;5.00;;;8.70;99.90;;;;;;5032989;28;20028;-77
2022/03/02 10:15:15;;;;;;;7.35;4.75;;;8.80;99.90;;;;;;5015666;28;20428;-77
2022/03/02 10:17:43;;;;;;;7.80;4.97;;;8.70;99.90;;;;;;5031680;28;20045;-77
2022/03/02 10:20:13;;;;;;;10.50;5.82;;;8.90;99.90;;;;;;4994321;28;20167;-77
2022/03/02 10:22:39;;;;;;;7.90;5.25;;;8.80;99.90;;;;;;4998603;28;20146;-78
2022/03/02 10:25:08;;;;;;;9.07;5.57;;;8.90;99.90;;;;;;5018007;28;20037;-77
2022/03/02 10:27:55;;;;;;;5.82;3.95;;;9.00;99.90;;;;;;5015398;28;20128;-78
2022/03/02 10:30:21;;;;;;;7.88;5.35;;;9.00;99.90;;;;;;4993694;28;20041;-78
2022/03/02 10:32:52;;;;;;;8.90;5.95;;;9.00;99.90;;;;;;5020783;28;20026;-78
2022/03/02 10:35:22;;;;;;;8.18;4.65;;;9.30;99.90;;;;;;4995359;28;20025;-78
2022/03/02 10:38:03;;;;;;;9.60;5.82;;;9.40;99.90;;;;;;5008380;28;20112;-78
2022/03/02 10:40:32;;;;;;;9.43;5.63;;;9.40;99.90;;;;;;5012911;28;20053;-78
2022/03/02 10:43:05;;;;;;;7.40;4.57;;;9.30;99.90;;;;;;5014459;28;20045;-78
2022/03/02 10:45:41;;;;;;;9.45;5.70;;;9.40;99.90;;;;;;5014645;28;20029;-78
2022/03/02 10:48:28;;;;;;;7.63;4.18;;;9.60;99.90;;;;;;5015287;28;20197;-78
2022/03/02 10:50:56;;;;;;;9.20;4.95;;;9.70;99.90;;;;;;5014152;28;20079;-78
2022/03/02 10:53:26;;;;;;;9.48;5.45;;;9.60;99.90;;;;;;5014655;28;20308;-78
2022/03/02 10:55:57;;;;;;;7.30;5.00;;;9.70;99.90;;;;;;5016316;28;20437;-78
2022/03/02 10:58:28;;;;;;;9.27;5.65;;;9.90;99.90;;;;;;5029697;28;20094;-77
2022/03/02 11:00:54;;;;;;;8.15;5.10;;;10.10;99.90;;;;;;4985723;28;20037;-78
2022/03/02 11:03:20;;;;;;;10.48;5.85;;;10.10;99.90;;;;;;5013111;28;20034;-78
2022/03/02 11:05:46;;;;;;;8.82;4.95;;;10.10;99.90;;;;;;5014430;28;20491;-78
2022/03/02 11:08:12;;;;;;;8.57;4.28;;;10.00;99.90;;;;;;5013138;28;20029;-78
2022/03/02 11:10:39;;;;;;;8.52;5.45;;;10.10;99.90;;;;;;5014535;28;20071;-78
2022/03/02 11:13:11;;;;;;;9.77;5.78;;;10.30;99.90;;;;;;5029672;28;20037;-78
2022/03/02 11:15:49;;;;;;;8.65;5.68;;;10.20;99.90;;;;;;5015112;28;20095;-77
2022/03/02 11:18:17;;;;;;;7.70;5.65;;;10.30;99.90;;;;;;5016474;28;20608;-77
2022/03/02 11:21:17;;;;;;;7.55;4.80;;;10.30;99.90;;;;;;4990213;28;20497;-77
2022/03/02 11:23:45;;;;;;;9.80;4.88;;;10.10;99.90;;;;;;5005033;28;20131;-78
2022/03/02 11:26:16;;;;;;;9.15;6.60;;;10.20;99.90;;;;;;5010958;28;20037;-78
2022/03/02 11:28:49;;;;;;;7.97;5.45;;;10.20;99.90;;;;;;5018077;28;20033;-77
2022/03/02 11:31:24;;;;;;;8.32;4.88;;;10.50;99.90;;;;;;5018985;28;20115;-78
2022/03/02 11:33:51;;;;;;;6.72;4.50;;;10.40;99.90;;;;;;4995522;28;20109;-77
2022/03/02 11:36:18;;;;;;;6.80;4.55;;;10.50;99.90;;;;;;5012585;28;20530;-77
2022/03/02 11:38:49;;;;;;;7.50;4.10;;;10.50;99.90;;;;;;5012467;28;20057;-77
2022/03/02 11:41:15;;;;;;;7.13;4.43;;;10.40;99.90;;;;;;5035262;28;20041;-78
2022/03/02 11:43:41;;;;;;;6.93;4.53;;;10.50;99.90;;;;;;5035211;28;20037;-78
2022/03/02 11:46:09;;;;;;;5.97;4.03;;;10.60;99.90;;;;;;5035294;28;20077;-78
2022/03/02 11:48:39;;;;;;;7.80;4.63;;;10.70;99.90;;;;;;5011023;28;20044;-77
2022/03/02 11:51:13;;;;;;;;;;;10.80;99.90;;;;;;5013460;28;20034;-78
2022/03/02 11:53:41;;;;;;;5.45;3.38;;;10.70;99.90;;;;;;5019069;28;19920;-78
2022/03/02 11:56:09;;;;;;;6.55;4.45;;;10.80;99.90;;;;;;5018608;28;20065;-78
2022/03/02 11:58:58;;;;;;;7.55;4.13;;;10.80;99.90;;;;;;5035315;28;20022;-78
2022/03/02 12:01:26;;;;;;;5.07;2.83;;;10.90;99.90;;;;;;5002730;28;20380;-78
2022/03/02 12:04:03;;;;;;;4.75;3.38;;;11.20;99.90;;;;;;5011501;28;20087;-78
2022/03/02 12:06:37;;;;;;;6.28;3.83;;;11.10;99.90;;;;;;5018032;28;20082;-78
2022/03/02 12:09:03;;;;;;;7.35;3.50;;;11.30;99.90;;;;;;5033645;28;20064;-78
2022/03/02 12:11:34;;;;;;;4.03;2.53;;;11.30;99.90;;;;;;5017866;28;20033;-78
2022/03/02 12:14:08;;;;;;;7.47;3.92;;;11.30;99.90;;;;;;5018073;28;20088;-78
2022/03/02 12:16:49;;;;;;;4.90;2.95;;;11.20;99.90;;;;;;5014806;28;20037;-78
2022/03/02 12:19:26;;;;;;;6.40;2.95;;;11.10;99.90;;;;;;5015227;28;20072;-78
2022/03/02 12:22:00;;;;;;;5.95;3.05;;;11.10;99.90;;;;;;5017831;28;20320;-78
2022/03/02 12:24:28;;;;;;;4.53;2.97;;;11.20;99.90;;;;;;4994809;28;20061;-77
2022/03/02 12:27:01;;;;;;;5.63;2.53;;;11.20;99.90;;;;;;5017694;28;20102;-78
2022/03/02 12:29:27;;;;;;;4.78;1.92;;;11.40;99.90;;;;;;5031917;28;20087;-78
2022/03/02 12:32:17;;;;;;;4.47;2.35;;;11.30;99.90;;;;;;5016066;28;20037;-78
2022/03/02 12:34:50;;;;;;;4.45;2.50;;;11.40;99.90;;;;;;4995496;28;20095;-78
2022/03/02 12:37:17;;;;;;;3.03;1.58;;;11.40;99.90;;;;;;5016014;28;21109;-78
2022/03/02 12:39:43;;;;;;;4.22;1.80;;;11.60;99.90;;;;;;5010279;28;20051;-78
2022/03/02 12:42:10;;;;;;;4.38;2.45;;;11.40;99.90;;;;;;5015837;28;20048;-78
2022/03/02 12:44:38;;;;;;;4.35;2.50;;;11.60;99.90;;;;;;5031611;28;20083;-78
2022/03/02 12:47:07;;;;;;;3.58;2.30;;;11.70;99.90;;;;;;5009339;28;20144;-78
2022/03/02 12:49:35;;;;;;;5.30;2.92;;;11.70;99.90;;;;;;4993138;28;20064;-78
2022/03/02 12:52:01;;;;;;;4.88;2.58;;;11.60;99.90;;;;;;5031496;28;20041;-78